Time;durP1;ratioP1;P1;durP2;ratioP2;P2;SDS_P1;SDS_P2;PMS_P1;PMS_P2;Temp;Humidity;BMP_temperature;BMP_pressure;BME280_temperature;BME280_humidity;BME280_pressure;Samples;Min_cycle;Max_cycle;Signal;HPM_P1;HPM_P2
2023/08/11 00:00:56;;;;;;;10.07;8.95;;;;;;;15.21;100.00;101995.97;4918393;29;20028;-78
2023/08/11 00:03:21;;;;;;;11.15;9.55;;;;;;;15.25;100.00;102004.44;4918460;29;20522;-78
2023/08/11 00:05:46;;;;;;;11.02;9.82;;;;;;;15.17;100.00;101999.72;4918355;29;20032;-78
2023/08/11 00:08:13;;;;;;;10.98;9.65;;;;;;;15.12;100.00;101995.72;4918435;29;20035;-78
2023/08/11 00:10:39;;;;;;;12.23;9.52;;;;;;;15.03;100.00;101986.75;4918269;29;20032;-78
2023/08/11 00:13:06;;;;;;;10.85;8.90;;;;;;;15.01;100.00;101993.81;4918189;29;20032;-78
2023/08/11 00:15:32;;;;;;;9.95;8.60;;;;;;;14.97;100.00;101997.56;4918282;29;20426;-77
2023/08/11 00:18:00;;;;;;;10.05;8.50;;;;;;;14.78;100.00;101968.44;4918033;29;20039;-76
2023/08/11 00:20:28;;;;;;;10.25;8.82;;;;;;;15.03;100.00;102012.75;4917247;29;20036;-78
2023/08/11 00:22:54;;;;;;;12.05;8.90;;;;;;;14.92;100.00;101997.00;4917767;29;20024;-78
2023/08/11 00:25:19;;;;;;;11.18;9.68;;;;;;;14.92;100.00;102000.44;4917843;29;20040;-77
2023/08/11 00:27:45;;;;;;;12.60;9.82;;;;;;;14.98;100.00;102004.41;4917823;29;20066;-78
2023/08/11 00:30:11;;;;;;;10.88;9.77;;;;;;;14.98;100.00;102012.22;4918046;29;20407;-78
2023/08/11 00:32:36;;;;;;;11.55;10.07;;;;;;;14.97;100.00;102002.75;4917644;29;20127;-78
2023/08/11 00:35:02;;;;;;;11.88;9.32;;;;;;;14.93;100.00;102001.25;4918059;29;20433;-77
2023/08/11 00:37:28;;;;;;;12.18;10.63;;;;;;;14.93;100.00;102007.28;4917797;29;20032;-76
2023/08/11 00:39:53;;;;;;;11.88;10.65;;;;;;;14.81;100.00;101999.44;4917761;29;20470;-78
2023/08/11 00:42:18;;;;;;;13.27;11.88;;;;;;;14.84;100.00;102004.44;4917756;29;20020;-78
2023/08/11 00:44:44;;;;;;;13.10;11.52;;;;;;;14.82;100.00;102007.13;4917522;29;20031;-78
2023/08/11 00:47:09;;;;;;;15.75;12.18;;;;;;;14.72;100.00;101987.00;4917577;29;20072;-78
2023/08/11 00:49:35;;;;;;;14.48;12.10;;;;;;;14.73;100.00;101993.84;4917642;29;20027;-77
2023/08/11 00:52:01;;;;;;;14.73;12.75;;;;;;;14.76;100.00;101991.09;4900096;29;20478;-78
2023/08/11 00:54:27;;;;;;;14.48;13.07;;;;;;;14.69;100.00;101984.59;4900448;29;20035;-77
2023/08/11 00:56:53;;;;;;;14.35;12.88;;;;;;;14.68;100.00;101980.31;4917427;29;20024;-78
2023/08/11 00:59:19;;;;;;;14.55;12.77;;;;;;;14.60;100.00;101971.22;4917457;29;20067;-78
2023/08/11 01:01:45;;;;;;;14.30;12.40;;;;;;;14.66;100.00;101979.59;4917370;29;20020;-77
2023/08/11 01:04:10;;;;;;;12.68;11.38;;;;;;;14.64;100.00;101971.84;4917203;29;20051;-78
2023/08/11 01:07:02;;;;;;;12.70;11.30;;;;;;;14.64;100.00;101964.91;4917116;29;20060;-77
2023/08/11 01:09:40;;;;;;;13.13;11.77;;;;;;;14.61;100.00;101975.50;4917266;29;20055;-78
2023/08/11 01:12:33;;;;;;;12.98;11.65;;;;;;;14.47;100.00;101953.91;4917221;29;20056;-78
2023/08/11 01:15:15;;;;;;;12.48;11.10;;;;;;;14.55;100.00;101977.63;4910577;29;20028;-78
2023/08/11 01:17:41;;;;;;;13.18;11.82;;;;;;;14.41;100.00;101951.63;4917215;29;20034;-78
2023/08/11 01:20:10;;;;;;;12.48;11.18;;;;;;;14.19;100.00;101919.16;4917120;29;20072;-78
2023/08/11 01:22:38;;;;;;;13.10;11.00;;;;;;;14.41;100.00;101955.06;4899816;29;20028;-77
2023/08/11 01:25:08;;;;;;;11.63;10.52;;;;;;;14.31;100.00;101941.78;4899949;29;20032;-78
2023/08/11 01:27:55;;;;;;;13.73;12.00;;;;;;;14.39;100.00;101950.88;4917219;29;20039;-78
2023/08/11 01:30:21;;;;;;;13.73;12.32;;;;;;;14.35;100.00;101945.03;4916755;29;20043;-79
2023/08/11 01:32:46;;;;;;;15.57;13.90;;;;;;;14.35;100.00;101951.09;4916707;29;20506;-79
2023/08/11 01:35:11;;;;;;;15.75;14.15;;;;;;;14.40;100.00;101948.19;4916833;29;20071;-79
2023/08/11 01:37:37;;;;;;;16.08;14.48;;;;;;;14.41;100.00;101952.47;4916644;29;20530;-78
2023/08/11 01:40:10;;;;;;;16.77;15.07;;;;;;;14.37;100.00;101955.34;4916717;29;20557;-78
2023/08/11 01:42:42;;;;;;;18.92;16.90;;;;;;;14.35;100.00;101965.81;4916893;29;20024;-78
2023/08/11 01:45:10;;;;;;;19.60;16.83;;;;;;;14.13;100.00;101929.06;4916601;29;20035;-78
2023/08/11 01:47:37;;;;;;;18.58;16.67;;;;;;;14.31;100.00;101969.53;4916663;29;20470;-78
2023/08/11 01:50:04;;;;;;;19.60;17.63;;;;;;;14.24;100.00;101957.84;4916673;29;20028;-79
2023/08/11 01:52:42;;;;;;;19.17;17.27;;;;;;;14.28;100.00;101961.94;4916200;29;20387;-78
2023/08/11 01:55:10;;;;;;;20.23;18.13;;;;;;;14.17;100.00;101953.97;4916451;29;20032;-79
2023/08/11 01:57:37;;;;;;;20.90;18.95;;;;;;;14.22;100.00;101959.69;4916717;29;20506;-79
2023/08/11 02:00:13;;;;;;;20.98;18.88;;;;;;;14.20;100.00;101966.75;4916540;29;20024;-78
2023/08/11 02:02:45;;;;;;;20.73;18.70;;;;;;;14.18;100.00;101955.63;4899451;29;20442;-78
2023/08/11 02:05:11;;;;;;;21.85;19.63;;;;;;;14.16;100.00;101949.66;4916146;29;20032;-78
2023/08/11 02:07:38;;;;;;;20.88;18.88;;;;;;;14.10;100.00;101944.84;4916526;29;20035;-77
2023/08/11 02:10:03;;;;;;;20.45;18.45;;;;;;;14.13;100.00;101940.31;4899528;29;20138;-77
2023/08/11 02:12:29;;;;;;;20.10;18.20;;;;;;;14.11;100.00;101947.34;4916420;29;20064;-78
2023/08/11 02:14:54;;;;;;;20.58;18.48;;;;;;;14.02;100.00;101934.91;4916381;29;20040;-78
2023/08/11 02:17:20;;;;;;;21.80;19.55;;;;;;;14.09;100.00;101945.78;4916220;29;20036;-79
2023/08/11 02:19:45;;;;;;;20.80;18.70;;;;;;;13.94;100.00;101916.34;4914835;29;20127;-78
2023/08/11 02:22:11;;;;;;;21.02;18.83;;;;;;;13.78;100.00;101896.50;4916076;29;20035;-78
2023/08/11 02:24:36;;;;;;;21.92;19.83;;;;;;;14.05;100.00;101940.75;4916232;29;20036;-78
2023/08/11 02:27:02;;;;;;;24.58;22.17;;;;;;;14.03;100.00;101936.59;4916176;29;20486;-78
2023/08/11 02:29:27;;;;;;;24.40;22.05;;;;;;;13.93;100.00;101918.13;4899081;29;20032;-78
2023/08/11 02:31:52;;;;;;;25.60;23.15;;;;;;;13.99;100.00;101938.53;4916094;29;20082;-78
2023/08/11 02:34:18;;;;;;;27.23;24.73;;;;;;;13.90;100.00;101931.28;4916080;29;20533;-78
2023/08/11 02:36:43;;;;;;;25.25;22.95;;;;;;;13.92;100.00;101937.22;4916035;29;20038;-78
2023/08/11 02:39:09;;;;;;;25.98;23.58;;;;;;;13.89;100.00;101931.41;4915956;29;20056;-78
2023/08/11 02:41:35;;;;;;;26.42;23.65;;;;;;;13.72;100.00;101922.81;4916248;29;20028;-78
2023/08/11 02:44:00;;;;;;;26.33;23.73;;;;;;;13.85;100.00;101943.69;4918397;29;20504;-77
2023/08/11 02:46:26;;;;;;;24.48;22.15;;;;;;;13.69;100.00;101927.38;4919877;29;20036;-78
2023/08/11 02:48:52;;;;;;;24.80;22.38;;;;;;;13.81;100.00;101936.19;4919584;29;20024;-78
2023/08/11 02:51:18;;;;;;;25.35;22.67;;;;;;;13.73;100.00;101936.63;4919816;29;20035;-78
2023/08/11 02:53:44;;;;;;;25.27;22.92;;;;;;;13.75;100.00;101946.00;4919630;29;20032;-78
2023/08/11 02:56:13;;;;;;;25.83;23.33;;;;;;;13.66;100.00;101935.31;4919596;29;20032;-78
2023/08/11 02:58:38;;;;;;;25.60;23.17;;;;;;;13.47;100.00;101910.47;4919726;29;20442;-78
2023/08/11 03:01:04;;;;;;;25.70;23.20;;;;;;;13.66;100.00;101945.69;4919523;29;20024;-77
2023/08/11 03:03:29;;;;;;;25.77;23.27;;;;;;;13.65;100.00;101944.03;4919660;29;20111;-78
2023/08/11 03:05:55;;;;;;;24.67;22.27;;;;;;;13.65;100.00;101944.03;4919390;29;20434;-77
2023/08/11 03:08:21;;;;;;;23.38;21.23;;;;;;;13.53;100.00;101929.19;4919514;29;20038;-78
2023/08/11 03:10:47;;;;;;;25.52;22.83;;;;;;;13.62;100.00;101944.22;4902849;29;20045;-77
2023/08/11 03:13:12;;;;;;;25.30;22.80;;;;;;;13.64;100.00;101942.38;4919376;29;20056;-77
2023/08/11 03:15:38;;;;;;;25.25;22.85;;;;;;;13.62;100.00;101933.84;4918982;29;20040;-76
2023/08/11 03:18:04;;;;;;;24.52;22.33;;;;;;;13.61;100.00;101937.34;4919465;29;20024;-77
2023/08/11 03:20:29;;;;;;;25.90;23.45;;;;;;;13.45;100.00;101914.88;4919349;29;20036;-77
2023/08/11 03:22:54;;;;;;;25.35;22.95;;;;;;;13.57;100.00;101939.31;4919179;29;20111;-76
2023/08/11 03:25:20;;;;;;;25.58;23.15;;;;;;;13.54;100.00;101933.44;4918802;29;20469;-76
2023/08/11 03:28:28;;;;;;;25.60;23.20;;;;;;;13.53;100.00;101935.19;5195614;23;20064;-76
2023/08/11 03:34:17;;;;;;;25.95;23.25;;;;;;;12.90;100.00;101863.53;4919129;29;20038;-76
2023/08/11 03:39:31;;;;;;;25.88;23.38;;;;;;;13.19;100.00;101912.97;4874237;23;20131;-77
2023/08/11 03:41:56;;;;;;;25.52;22.98;;;;;;;13.35;100.00;101939.69;4918455;29;20119;-73
2023/08/11 03:44:21;;;;;;;25.92;23.33;;;;;;;13.29;100.00;101932.25;4918810;29;20039;-76
2023/08/11 03:49:42;;;;;;;25.10;22.77;;;;;;;12.83;100.00;101862.19;4901291;27;20107;-76
2023/08/11 03:52:08;;;;;;;26.45;23.73;;;;;;;12.33;100.00;101780.34;4918631;29;20071;-76
2023/08/11 03:54:33;;;;;;;27.67;25.05;;;;;;;13.25;100.00;101930.75;4918184;29;20118;-76
2023/08/11 03:56:58;;;;;;;25.63;23.13;;;;;;;13.26;100.00;101926.41;4918371;29;20036;-76
2023/08/11 03:59:24;;;;;;;26.10;23.67;;;;;;;13.22;100.00;101924.91;4918506;29;20398;-76
2023/08/11 04:01:49;;;;;;;27.38;24.67;;;;;;;13.23;100.00;101927.41;4918080;29;20502;-76
2023/08/11 04:04:15;;;;;;;26.40;23.80;;;;;;;13.21;100.00;101921.47;4918272;29;20032;-76
2023/08/11 04:06:40;;;;;;;25.63;23.08;;;;;;;13.22;100.00;101917.13;4918325;29;20493;-76
2023/08/11 04:09:06;;;;;;;27.75;24.85;;;;;;;13.21;100.00;101924.06;4918261;29;20079;-77
2023/08/11 04:11:32;;;;;;;26.83;24.20;;;;;;;13.18;100.00;101919.88;4918173;29;20079;-76
2023/08/11 04:13:58;;;;;;;26.30;23.70;;;;;;;13.12;100.00;101914.19;4918364;29;20098;-76
2023/08/11 04:16:24;;;;;;;26.75;24.25;;;;;;;13.18;100.00;101927.66;4918290;29;20032;-77
2023/08/11 04:18:49;;;;;;;28.08;25.35;;;;;;;13.21;100.00;101926.66;4917948;29;20566;-77
2023/08/11 04:21:14;;;;;;;24.88;22.45;;;;;;;13.08;100.00;101910.94;4901105;29;20044;-77
2023/08/11 04:23:40;;;;;;;27.75;25.00;;;;;;;13.21;100.00;101924.06;4916382;29;20091;-76
2023/08/11 04:26:05;;;;;;;29.27;26.38;;;;;;;13.09;100.00;101901.41;4917594;29;20039;-77
2023/08/11 04:28:32;;;;;;;28.10;25.40;;;;;;;13.20;100.00;101922.41;4918115;29;20062;-77
2023/08/11 04:30:57;;;;;;;29.15;26.35;;;;;;;13.25;100.00;101928.16;4917902;29;20028;-78
2023/08/11 04:33:24;;;;;;;30.00;26.95;;;;;;;13.28;100.00;101922.81;4900817;29;20075;-78
2023/08/11 04:35:50;;;;;;;29.75;26.88;;;;;;;13.30;100.00;101933.94;4917751;29;20123;-77
2023/08/11 04:38:15;;;;;;;29.98;26.92;;;;;;;13.32;100.00;101932.06;4917542;29;20056;-77
2023/08/11 04:40:40;;;;;;;29.30;26.50;;;;;;;13.37;100.00;101929.22;4917300;29;20063;-77
2023/08/11 04:43:06;;;;;;;29.58;26.58;;;;;;;13.39;100.00;101917.84;4900489;29;20075;-77
2023/08/11 04:45:31;;;;;;;30.17;27.15;;;;;;;13.28;100.00;101894.28;4917748;29;20072;-78
2023/08/11 04:47:57;;;;;;;28.02;25.25;;;;;;;13.35;100.00;101899.94;4917361;29;20138;-76
2023/08/11 04:50:23;;;;;;;29.13;26.20;;;;;;;13.40;100.00;101906.53;4917484;29;20039;-78
2023/08/11 04:52:48;;;;;;;30.05;27.00;;;;;;;13.47;100.00;101900.06;4917611;29;20035;-78
2023/08/11 04:55:14;;;;;;;28.85;25.92;;;;;;;13.52;100.00;101894.59;4917308;29;20103;-78
2023/08/11 04:57:39;;;;;;;29.70;26.70;;;;;;;13.69;100.00;101904.84;4917728;29;20479;-77
2023/08/11 05:00:06;;;;;;;28.63;25.67;;;;;;;13.68;100.00;101894.56;4917589;29;20084;-78
2023/08/11 05:02:32;;;;;;;30.17;27.13;;;;;;;13.77;100.00;101896.59;4917429;29;20028;-78
2023/08/11 05:04:58;;;;;;;30.38;27.27;;;;;;;13.88;100.00;101902.00;4917294;29;20032;-78
2023/08/11 05:07:23;;;;;;;29.85;26.83;;;;;;;13.98;100.00;101899.69;4916724;29;20036;-77
2023/08/11 05:09:49;;;;;;;29.88;26.95;;;;;;;13.98;100.00;101881.50;4917265;29;20071;-78
2023/08/11 05:12:16;;;;;;;28.27;25.42;;;;;;;14.24;100.00;101901.50;4900229;29;20478;-78
2023/08/11 05:14:42;;;;;;;29.50;26.70;;;;;;;14.32;100.00;101894.09;4900198;29;20478;-78
2023/08/11 05:17:08;;;;;;;28.55;25.67;;;;;;;14.46;100.00;101895.06;4917452;29;20059;-79
2023/08/11 05:19:36;;;;;;;27.00;24.20;;;;;;;14.51;100.00;101883.41;4899378;29;20482;-77
2023/08/11 05:22:02;;;;;;;27.02;24.17;;;;;;;14.71;100.00;101878.72;4916976;29;20028;-79
2023/08/11 05:24:27;;;;;;;26.27;23.27;;;;;;;15.14;100.00;101900.19;4916958;29;20035;-77
2023/08/11 05:26:53;;;;;;;25.42;22.90;;;;;;;15.40;100.00;101898.50;4916711;29;20028;-77
2023/08/11 05:29:18;;;;;;;24.55;21.25;;;;;;;15.63;100.00;101878.75;4916934;29;20040;-76
2023/08/11 05:31:43;;;;;;;23.88;21.52;;;;;;;15.76;100.00;101885.66;4916784;29;20120;-77
2023/08/11 05:34:09;;;;;;;22.25;19.48;;;;;;;15.79;100.00;101882.00;4899982;29;20035;-77
2023/08/11 05:36:35;;;;;;;22.42;19.77;;;;;;;15.62;100.00;101864.91;4916810;29;20035;-76
2023/08/11 05:39:00;;;;;;;22.42;20.02;;;;;;;15.82;100.00;101891.38;4916880;29;20099;-77
2023/08/11 05:41:25;;;;;;;20.60;18.60;;;;;;;15.85;100.00;101893.78;4934867;29;20051;-76
2023/08/11 05:43:50;;;;;;;23.33;19.38;;;;;;;15.64;100.00;101862.22;4935663;29;20079;-77
2023/08/11 05:46:16;;;;;;;21.67;19.38;;;;;;;15.87;100.00;101882.31;4935381;29;20082;-77
2023/08/11 05:48:42;;;;;;;21.90;18.63;;;;;;;16.75;100.00;101893.53;4934172;29;20058;-77
2023/08/11 05:51:08;;;;;;;20.20;17.35;;;;;;;18.57;98.80;101890.97;4935656;29;20032;-78
2023/08/11 05:53:33;;;;;;;17.70;15.65;;;;;;;20.03;89.64;101895.50;4935581;29;20429;-77
2023/08/11 05:55:59;;;;;;;19.63;14.25;;;;;;;21.25;81.40;101892.53;4935465;29;20042;-79
2023/08/11 05:58:24;;;;;;;15.13;13.50;;;;;;;22.30;75.78;101895.81;4935319;29;20024;-76
2023/08/11 06:00:50;;;;;;;14.68;13.05;;;;;;;23.17;70.76;101897.84;4935738;29;20020;-78
2023/08/11 06:03:15;;;;;;;16.08;12.50;;;;;;;23.90;66.95;101886.16;4935365;29;20071;-77
2023/08/11 06:05:41;;;;;;;16.38;12.32;;;;;;;24.49;63.60;101890.50;4935188;29;20063;-78
2023/08/11 06:08:07;;;;;;;16.17;10.98;;;;;;;25.18;60.85;101904.31;4913584;29;20474;-78
2023/08/11 06:10:33;;;;;;;14.10;11.88;;;;;;;25.30;58.49;101875.69;4917054;29;20079;-78
2023/08/11 06:12:58;;;;;;;13.65;11.65;;;;;;;25.78;56.68;101895.13;4916014;29;20028;-80
2023/08/11 06:15:24;;;;;;;15.38;11.70;;;;;;;26.16;56.86;101891.66;4916452;29;20035;-78
2023/08/11 06:17:50;;;;;;;15.13;11.48;;;;;;;26.49;53.96;101875.59;4916682;29;20114;-79
2023/08/11 06:20:19;;;;;;;12.93;10.88;;;;;;;26.94;54.39;101889.84;4920303;29;20024;-76
2023/08/11 06:22:45;;;;;;;10.30;7.05;;;;;;;27.37;51.60;101869.75;4920262;29;20061;-82
2023/08/11 06:25:16;;;;;;;11.20;6.75;;;;;;;27.68;51.18;101875.72;4920027;29;20039;-79
2023/08/11 06:27:50;;;;;;;9.02;6.68;;;;;;;28.08;51.99;101896.66;5024138;23;20075;-83
2023/08/11 06:30:15;;;;;;;9.95;8.75;;;;;;;28.18;49.01;101892.69;4919065;29;20491;-83
2023/08/11 06:32:42;;;;;;;9.75;7.05;;;;;;;28.48;48.35;101893.47;4861320;29;20049;-79
2023/08/11 06:35:08;;;;;;;14.10;8.82;;;;;;;28.47;47.05;101891.00;4861261;29;20046;-82
2023/08/11 06:37:34;;;;;;;10.07;6.85;;;;;;;28.75;47.21;101894.56;4861368;29;20121;-82
2023/08/11 06:39:59;;;;;;;9.63;7.38;;;;;;;29.04;45.92;101893.59;4861564;29;20174;-81
2023/08/11 06:42:25;;;;;;;12.45;8.05;;;;;;;29.16;45.23;101899.22;4861434;29;20519;-79
2023/08/11 06:44:50;;;;;;;11.02;7.70;;;;;;;29.51;45.14;101901.94;4861478;29;20042;-81
2023/08/11 06:47:16;;;;;;;12.10;10.07;;;;;;;29.69;44.60;101902.25;4861182;29;20052;-78
2023/08/11 06:49:41;;;;;;;11.13;9.20;;;;;;;29.98;43.35;101901.97;4861489;29;20025;-73
2023/08/11 06:52:06;;;;;;;13.70;9.05;;;;;;;30.18;43.46;101906.56;4861547;29;20061;-83
2023/08/11 06:54:33;;;;;;;13.57;9.60;;;;;;;30.40;42.62;101909.94;4861312;29;20037;-82
2023/08/11 06:56:59;;;;;;;11.90;9.35;;;;;;;30.64;42.36;101885.41;4861273;29;20033;-80
2023/08/11 06:59:25;;;;;;;11.13;8.10;;;;;;;30.43;41.06;101905.03;4861073;29;20052;-81
2023/08/11 07:01:50;;;;;;;10.63;7.18;;;;;;;30.35;42.33;101913.19;4830137;29;20030;-81
2023/08/11 07:04:16;;;;;;;11.55;7.43;;;;;;;30.53;41.70;101909.97;4904760;29;20103;-81
2023/08/11 07:06:41;;;;;;;9.82;6.93;;;;;;;30.78;41.29;101904.91;4919394;29;20020;-82
2023/08/11 07:09:06;;;;;;;13.73;7.85;;;;;;;30.91;40.93;101907.56;4919600;29;20496;-81
2023/08/11 07:11:32;;;;;;;9.40;6.20;;;;;;;31.25;40.18;101900.38;4919465;29;20028;-81
2023/08/11 07:13:57;;;;;;;12.18;7.00;;;;;;;31.29;40.29;101905.13;4918645;29;20028;-82
2023/08/11 07:16:25;;;;;;;11.52;7.30;;;;;;;31.28;39.54;101911.50;4919086;29;20032;-76
2023/08/11 07:18:50;;;;;;;9.70;6.20;;;;;;;31.49;39.76;101904.25;4919144;29;20060;-77
2023/08/11 07:21:15;;;;;;;10.20;6.03;;;;;;;31.74;39.98;101904.38;4918367;29;20103;-79
2023/08/11 07:23:41;;;;;;;11.50;6.10;;;;;;;31.77;39.30;101880.78;4918607;29;20533;-81
2023/08/11 07:26:15;;;;;;;9.68;7.60;;;;;;;31.79;38.90;101897.41;4919367;29;20028;-77
2023/08/11 07:28:40;;;;;;;10.48;7.07;;;;;;;30.21;40.23;101890.22;4909688;29;20044;-76
2023/08/11 07:31:06;;;;;;;10.68;6.45;;;;;;;28.65;45.09;101910.00;4899736;29;20058;-80
2023/08/11 07:33:31;;;;;;;8.80;6.38;;;;;;;26.98;47.83;101878.72;4900056;29;20033;-79
2023/08/11 07:35:56;;;;;;;10.73;6.65;;;;;;;26.01;51.34;101912.72;4899928;29;20025;-77
2023/08/11 07:38:22;;;;;;;9.70;6.65;;;;;;;25.15;54.37;101913.38;4900019;29;20036;-74
2023/08/11 07:40:47;;;;;;;13.60;7.68;;;;;;;24.43;57.55;101898.25;4899917;29;20024;-77
2023/08/11 07:43:14;;;;;;;9.50;6.38;;;;;;;24.15;59.13;101908.19;4899588;29;20439;-76
2023/08/11 07:45:39;;;;;;;9.23;6.28;;;;;;;23.78;61.45;101904.03;4899708;29;20533;-75
2023/08/11 07:48:05;;;;;;;11.00;6.10;;;;;;;23.48;61.96;101878.94;4900071;29;20028;-76
2023/08/11 07:50:31;;;;;;;12.15;7.40;;;;;;;23.40;64.09;101905.25;4882882;29;20405;-75
2023/08/11 07:52:56;;;;;;;10.65;6.88;;;;;;;23.19;66.30;101909.06;4899407;29;20033;-76
2023/08/11 07:55:21;;;;;;;11.10;6.75;;;;;;;22.97;67.07;101899.00;4899605;29;20059;-77
2023/08/11 07:57:47;;;;;;;10.40;6.93;;;;;;;23.00;66.29;101908.41;4899509;29;20024;-80
2023/08/11 08:00:16;;;;;;;10.60;6.47;;;;;;;22.59;67.73;101847.44;4898111;29;20143;-76
2023/08/11 08:02:45;;;;;;;10.77;6.40;;;;;;;22.81;66.89;101885.66;4899768;29;20120;-77
2023/08/11 08:05:11;;;;;;;8.68;6.65;;;;;;;22.94;69.04;101909.84;4899676;29;20028;-73
2023/08/11 08:07:36;;;;;;;9.07;5.78;;;;;;;22.96;70.15;101913.16;4899500;29;20108;-76
2023/08/11 08:10:08;;;;;;;12.23;5.53;;;;;;;22.84;69.76;101894.13;4899329;29;20535;-77
2023/08/11 08:12:37;;;;;;;8.18;5.60;;;;;;;22.92;69.81;101895.19;4899202;29;20021;-79
2023/08/11 08:15:05;;;;;;;8.52;5.55;;;;;;;23.03;69.01;101921.28;4899101;29;20043;-78
2023/08/11 08:17:31;;;;;;;9.32;4.95;;;;;;;23.05;67.17;101912.25;4899148;29;20055;-79
2023/08/11 08:19:56;;;;;;;8.45;4.65;;;;;;;22.82;66.74;101861.00;4882046;29;20044;-75
2023/08/11 08:22:22;;;;;;;11.10;4.90;;;;;;;23.21;68.98;101908.94;4899069;29;20035;-78
2023/08/11 08:24:48;;;;;;;8.88;4.53;;;;;;;23.29;68.75;101908.97;4899125;29;20032;-74
2023/08/11 08:27:14;;;;;;;8.73;4.60;;;;;;;23.37;68.29;101906.41;4901519;29;20486;-75
2023/08/11 08:29:40;;;;;;;8.52;4.65;;;;;;;22.84;66.62;101816.91;4929677;29;20044;-76
2023/08/11 08:32:05;;;;;;;7.22;4.43;;;;;;;23.48;66.95;101905.31;4920773;29;20039;-76
2023/08/11 08:34:30;;;;;;;8.73;4.53;;;;;;;23.53;66.80;101910.13;4936844;29;20086;-76
2023/08/11 08:36:56;;;;;;;8.52;4.60;;;;;;;23.55;65.96;101905.53;4936763;29;20050;-75
2023/08/11 08:39:21;;;;;;;6.82;4.32;;;;;;;23.39;64.33;101875.44;4919734;29;20024;-76
2023/08/11 08:41:50;;;;;;;8.32;4.68;;;;;;;23.40;63.13;101871.84;4935846;29;20027;-75
2023/08/11 08:44:16;;;;;;;8.10;4.30;;;;;;;23.54;64.97;101888.88;4955898;23;20048;-81
2023/08/11 08:46:42;;;;;;;6.72;3.90;;;;;;;23.78;64.80;101916.41;4917856;29;20387;-73
2023/08/11 08:49:23;;;;;;;7.80;4.25;;;;;;;23.90;66.57;101912.53;4917695;29;20028;-79
2023/08/11 08:51:49;;;;;;;7.20;4.20;;;;;;;23.89;65.27;101892.38;4917665;29;20360;-81
2023/08/11 08:54:14;;;;;;;8.02;4.28;;;;;;;24.10;67.06;101913.13;4916062;29;20043;-79
2023/08/11 08:56:40;;;;;;;6.65;4.07;;;;;;;24.01;61.95;101889.34;4917563;29;20031;-80
2023/08/11 08:59:06;;;;;;;6.32;3.78;;;;;;;24.09;61.74;101883.28;4923791;23;20060;-80
2023/08/11 09:01:33;;;;;;;5.85;3.95;;;;;;;24.37;63.80;101914.72;4917344;29;20036;-80
2023/08/11 09:03:59;;;;;;;7.78;3.85;;;;;;;24.51;61.74;101906.19;4925247;29;20028;-79
2023/08/11 09:06:26;;;;;;;9.48;4.32;;;;;;;24.68;61.94;101910.53;4936216;29;20042;-78
2023/08/11 09:08:52;;;;;;;9.98;3.83;;;;;;;24.80;63.05;101903.91;4936007;29;20078;-80
2023/08/11 09:11:18;;;;;;;5.57;3.47;;;;;;;24.91;63.41;101909.88;4936053;29;20095;-79
2023/08/11 09:13:47;;;;;;;7.88;3.97;;;;;;;24.92;62.29;101909.72;4936167;29;20111;-76
2023/08/11 09:16:14;;;;;;;5.97;3.85;;;;;;;25.01;62.21;101915.81;4936105;29;20043;-78
2023/08/11 09:18:40;;;;;;;7.50;3.53;;;;;;;25.05;61.09;101903.94;4936005;29;20036;-78
2023/08/11 09:26:28;;;;;;;7.32;3.75;;;;;;;24.96;60.89;101852.06;4856770;27;20121;-77
2023/08/11 09:49:27;;;;;;;7.32;3.40;;;;;;;26.67;55.46;101831.09;4879462;29;20051;-79
2023/08/11 10:01:07;;;;;;;6.05;3.42;;;;;;;27.68;53.85;101896.97;4954690;29;20057;-79
2023/08/11 10:03:48;;;;;;;5.82;2.60;;;;;;;27.70;52.73;101894.94;4954054;29;20171;-78
2023/08/11 10:15:53;;;;;;;6.20;2.58;;;;;;;27.03;51.71;101777.44;4858139;29;20045;-76
2023/08/11 10:18:20;;;;;;;5.15;2.42;;;;;;;27.59;52.71;101897.22;4857787;29;20094;-78
2023/08/11 10:20:46;;;;;;;4.95;2.40;;;;;;;27.61;52.51;101901.31;5093625;23;20133;-75
2023/08/11 10:23:13;;;;;;;6.22;3.03;;;;;;;27.54;52.83;101892.47;4916807;29;20034;-77
2023/08/11 10:25:39;;;;;;;6.07;2.65;;;;;;;27.48;52.34;101887.88;4915440;29;20036;-77
2023/08/11 10:28:07;;;;;;;4.18;2.70;;;;;;;27.34;52.10;101886.03;4916290;29;20032;-77
2023/08/11 10:30:33;;;;;;;7.50;2.90;;;;;;;27.34;53.11;101892.16;4916100;29;20513;-78
2023/08/11 10:33:09;;;;;;;5.40;2.65;;;;;;;27.34;54.39;101888.69;4915824;29;20056;-76
2023/08/11 10:35:46;;;;;;;4.68;2.28;;;;;;;27.18;53.65;101867.63;4916720;29;20032;-77
2023/08/11 10:38:11;;;;;;;7.75;2.58;;;;;;;27.21;55.11;101877.88;4916224;29;20042;-78
2023/08/11 10:40:38;;;;;;;5.22;2.50;;;;;;;27.23;53.87;101884.63;4916066;29;20115;-77
2023/08/11 10:43:07;;;;;;;6.38;2.42;;;;;;;27.14;53.33;101865.34;4915963;29;20095;-78
2023/08/11 10:45:33;;;;;;;4.97;2.65;;;;;;;27.20;53.26;101881.53;4915729;29;20028;-77
2023/08/11 10:48:05;;;;;;;7.38;2.60;;;;;;;27.19;54.79;101890.50;4916050;29;20031;-76
2023/08/11 10:50:30;;;;;;;6.10;2.70;;;;;;;27.24;54.59;101882.81;4915974;29;20028;-78
2023/08/11 10:53:21;;;;;;;5.45;2.53;;;;;;;27.24;54.19;101890.78;4915845;29;20174;-78
2023/08/11 10:56:00;;;;;;;4.03;2.25;;;;;;;27.27;54.41;101879.81;4915873;29;20036;-77
2023/08/11 10:58:26;;;;;;;4.88;2.50;;;;;;;27.25;53.69;101874.69;4916066;29;20055;-77
2023/08/11 11:00:52;;;;;;;3.88;2.60;;;;;;;27.13;54.26;101850.41;4914288;29;20052;-78
2023/08/11 11:03:18;;;;;;;4.97;2.25;;;;;;;27.22;54.25;101882.16;4916031;29;20028;-74
2023/08/11 11:05:44;;;;;;;4.00;2.47;;;;;;;27.32;54.40;101875.59;4902418;29;20035;-78
2023/08/11 11:08:09;;;;;;;3.88;2.53;;;;;;;27.17;53.04;101844.78;4919598;29;20032;-78
2023/08/11 11:10:35;;;;;;;4.90;2.50;;;;;;;27.37;53.42;101878.53;4919418;29;20387;-77
2023/08/11 11:13:00;;;;;;;5.18;2.40;;;;;;;27.22;52.46;101848.50;4919354;29;20047;-77
2023/08/11 11:15:33;;;;;;;4.93;2.30;;;;;;;27.38;53.41;101874.88;4919150;29;20068;-78
2023/08/11 11:17:59;;;;;;;6.75;2.10;;;;;;;27.48;53.10;101874.59;4919228;29;20066;-77
2023/08/11 11:20:25;;;;;;;3.60;1.98;;;;;;;27.38;53.39;101852.84;4918879;29;20111;-76
2023/08/11 11:22:50;;;;;;;7.07;2.28;;;;;;;27.50;53.44;101872.59;4919141;29;20071;-75
2023/08/11 11:25:19;;;;;;;4.93;2.30;;;;;;;27.61;54.06;101884.56;4919112;29;20108;-77
2023/08/11 11:27:45;;;;;;;4.82;2.58;;;;;;;27.44;54.10;101855.59;4918916;29;20068;-75
2023/08/11 11:30:11;;;;;;;3.20;1.92;;;;;;;27.62;52.62;101881.72;4919020;29;20063;-76
2023/08/11 11:32:38;;;;;;;6.75;2.60;;;;;;;27.62;51.56;101870.28;4918716;29;20540;-77
2023/08/11 11:35:07;;;;;;;3.78;2.03;;;;;;;27.78;53.18;101871.97;4918926;29;20032;-78
2023/08/11 11:37:33;;;;;;;3.58;2.08;;;;;;;27.79;51.51;101874.44;4919032;29;20091;-77
2023/08/11 11:40:01;;;;;;;4.32;2.33;;;;;;;27.65;54.37;101846.91;4918694;29;20584;-76
2023/08/11 11:42:31;;;;;;;5.18;2.45;;;;;;;27.96;53.22;101869.75;4902161;29;20133;-82
2023/08/11 11:44:58;;;;;;;3.47;2.30;;;;;;;27.91;51.65;101866.81;4918590;29;20031;-80
2023/08/11 11:47:24;;;;;;;7.13;2.60;;;;;;;27.92;52.70;101861.31;4918677;29;20107;-80
2023/08/11 11:49:57;;;;;;;5.32;2.33;;;;;;;27.88;53.23;101851.28;4918536;29;20104;-80
2023/08/11 11:52:22;;;;;;;5.78;2.60;;;;;;;27.88;51.68;101851.28;4918758;29;20043;-80
2023/08/11 11:54:55;;;;;;;4.07;2.42;;;;;;;27.95;53.61;101855.66;4918444;29;20024;-76
2023/08/11 11:57:22;;;;;;;3.88;2.42;;;;;;;28.03;52.36;101859.22;4918456;29;20028;-79
2023/08/11 11:59:48;;;;;;;5.53;2.78;;;;;;;27.98;51.99;101859.78;4918523;29;20147;-80
2023/08/11 12:02:17;;;;;;;5.97;2.58;;;;;;;28.05;52.45;101860.69;4918303;29;20028;-80
2023/08/11 12:04:46;;;;;;;4.07;2.60;;;;;;;28.15;55.17;101863.03;4918248;29;20508;-82